Time;durP1;ratioP1;P1;durP2;ratioP2;P2;SDS_P1;SDS_P2;PMS_P1;PMS_P2;Temp;Humidity;BMP_temperature;BMP_pressure;BME280_temperature;BME280_humidity;BME280_pressure;Samples;Min_cycle;Max_cycle;Signal;HPM_P1;HPM_P2
2021/10/12 00:01:29;;;;;;;;;;;11.10;99.90;;;;;;5067292;28;20257;-81
2021/10/12 00:03:55;;;;;;;;;;;11.10;99.90;;;;;;5063224;28;19912;-81
2021/10/12 00:06:21;;;;;;;;;;;11.10;99.90;;;;;;5059015;28;20307;-80
2021/10/12 00:08:46;;;;;;;;;;;11.10;99.90;;;;;;5058865;28;19917;-81
2021/10/12 00:11:12;;;;;;;;;;;11.10;99.90;;;;;;5063403;28;19917;-80
2021/10/12 00:13:37;;;;;;;;;;;11.10;99.90;;;;;;5067540;28;19916;-80
2021/10/12 00:16:03;;;;;;;;;;;11.00;99.90;;;;;;5071700;28;19919;-79
2021/10/12 00:18:29;;;;;;;;;;;11.00;99.90;;;;;;5068299;28;19924;-81
2021/10/12 00:20:54;;;;;;;;;;;11.00;99.90;;;;;;5067545;28;19919;-80
2021/10/12 00:23:20;;;;;;;;;;;11.00;99.90;;;;;;5058498;28;20231;-78
2021/10/12 00:25:45;;;;;;;;;;;11.00;99.90;;;;;;5060987;28;19970;-81
2021/10/12 00:28:11;;;;;;;;;;;11.00;99.90;;;;;;5059891;28;19923;-80
2021/10/12 00:30:37;;;;;;;;;;;11.00;99.90;;;;;;5076938;28;19916;-81
2021/10/12 00:33:06;;;;;;;;;;;11.10;99.90;;;;;;5055998;28;19923;-80
2021/10/12 00:35:31;;;;;;;;;;;11.10;99.90;;;;;;5068184;28;19923;-79
2021/10/12 00:37:57;;;;;;;;;;;11.10;99.90;;;;;;5070363;28;20011;-80
2021/10/12 00:40:23;;;;;;;;;;;11.10;99.90;;;;;;5072785;28;19958;-79
2021/10/12 00:42:48;;;;;;;;;;;11.10;99.90;;;;;;5068354;28;19913;-80
2021/10/12 00:45:14;;;;;;;;;;;11.10;99.90;;;;;;5067587;28;19939;-80
2021/10/12 00:47:53;;;;;;;;;;;11.00;99.90;;;;;;5070250;28;19951;-79
2021/10/12 00:50:19;;;;;;;;;;;11.10;99.90;;;;;;5065971;28;19923;-80
2021/10/12 00:52:45;;;;;;;;;;;11.00;99.90;;;;;;5056737;28;19912;-80
2021/10/12 00:55:10;;;;;;;;;;;11.00;99.90;;;;;;5061095;28;19912;-80
2021/10/12 00:57:36;;;;;;;;;;;11.00;99.90;;;;;;5058976;28;20235;-80
2021/10/12 01:00:01;;;;;;;;;;;11.00;99.90;;;;;;5073418;28;20243;-79
2021/10/12 01:02:28;;;;;;;;;;;11.00;99.90;;;;;;5068742;28;19913;-80
2021/10/12 01:04:54;;;;;;;;;;;10.90;99.90;;;;;;5062373;28;20349;-80
2021/10/12 01:07:19;;;;;;;;;;;11.00;99.90;;;;;;5068984;28;19999;-78
2021/10/12 01:09:45;;;;;;;;;;;11.00;99.90;;;;;;5072383;28;20224;-80
2021/10/12 01:12:10;;;;;;;;;;;11.00;99.90;;;;;;5055709;28;19935;-79
2021/10/12 01:14:36;;;;;;;;;;;11.10;99.90;;;;;;5062674;28;19944;-80
2021/10/12 01:17:02;;;;;;;;;;;11.10;99.90;;;;;;5060825;28;19921;-80
2021/10/12 01:19:27;;;;;;;;;;;11.10;99.90;;;;;;5056510;28;19913;-80
2021/10/12 01:21:53;;;;;;;;;;;11.10;99.90;;;;;;5069013;28;20010;-80
2021/10/12 01:24:18;;;;;;;;;;;11.10;99.90;;;;;;5053505;28;20106;-79
2021/10/12 01:26:44;;;;;;;;;;;11.10;99.90;;;;;;5078892;28;20254;-80
2021/10/12 01:29:11;;;;;;;;;;;11.10;99.90;;;;;;5063139;28;19912;-77
2021/10/12 01:31:37;;;;;;;;;;;11.00;99.90;;;;;;5056603;28;19925;-81
2021/10/12 01:34:13;;;;;;;;;;;11.00;99.90;;;;;;5056342;28;19963;-80
2021/10/12 01:36:39;;;;;;;;;;;11.00;99.90;;;;;;5054761;28;20322;-81
2021/10/12 01:39:04;;;;;;;;;;;11.00;99.90;;;;;;5056534;28;20016;-80
2021/10/12 01:41:30;;;;;;;;;;;11.00;99.90;;;;;;5054810;28;19920;-79
2021/10/12 01:43:59;;;;;;;;;;;11.00;99.90;;;;;;5053545;28;20311;-81
2021/10/12 01:46:24;;;;;;;;;;;11.00;99.90;;;;;;5067479;28;19959;-81
2021/10/12 01:48:50;;;;;;;;;;;11.00;99.90;;;;;;5062362;28;19956;-79
2021/10/12 01:51:15;;;;;;;;;;;11.00;99.90;;;;;;5055110;28;19943;-80
2021/10/12 01:53:41;;;;;;;;;;;11.00;99.90;;;;;;5058974;28;19955;-80
2021/10/12 01:56:07;;;;;;;;;;;11.00;99.90;;;;;;5068324;28;19943;-80
2021/10/12 01:58:32;;;;;;;;;;;11.00;99.90;;;;;;5074596;28;19943;-81
2021/10/12 02:00:58;;;;;;;;;;;11.00;99.90;;;;;;5055552;28;19936;-80
2021/10/12 02:03:24;;;;;;;;;;;11.00;99.90;;;;;;5059918;28;19916;-80
2021/10/12 02:05:50;;;;;;;;;;;10.90;99.90;;;;;;5060195;28;20307;-77
2021/10/12 02:08:15;;;;;;;;;;;11.00;99.90;;;;;;5083179;28;20311;-80
2021/10/12 02:10:41;;;;;;;;;;;10.90;99.90;;;;;;5062662;28;20231;-80
2021/10/12 02:13:07;;;;;;;;;;;10.90;99.90;;;;;;5063070;28;19913;-81
2021/10/12 02:15:32;;;;;;;;;;;10.90;99.90;;;;;;5064313;28;20220;-81
2021/10/12 02:17:58;;;;;;;;;;;10.90;99.90;;;;;;5068245;28;20043;-82
2021/10/12 02:20:23;;;;;;;;;;;10.90;99.90;;;;;;5067511;28;20405;-81
2021/10/12 02:22:49;;;;;;;;;;;10.90;99.90;;;;;;5065550;28;19920;-81
2021/10/12 02:25:14;;;;;;;;;;;10.90;99.90;;;;;;5066197;28;19917;-81
2021/10/12 02:27:40;;;;;;;;;;;10.80;99.90;;;;;;5065597;28;19999;-78
2021/10/12 02:30:07;;;;;;;;;;;10.90;99.90;;;;;;5061972;28;19912;-81
2021/10/12 02:32:32;;;;;;;;;;;10.90;99.90;;;;;;5062054;28;20337;-81
2021/10/12 02:34:58;;;;;;;;;;;10.90;99.90;;;;;;5059023;28;19920;-82
2021/10/12 02:37:23;;;;;;;;;;;10.90;99.90;;;;;;5060916;28;19956;-80
2021/10/12 02:39:49;;;;;;;;;;;10.90;99.90;;;;;;5071709;28;20342;-81
2021/10/12 02:42:15;;;;;;;;;;;10.90;99.90;;;;;;5066128;28;20274;-81
2021/10/12 02:44:40;;;;;;;;;;;10.90;99.90;;;;;;5069105;28;19952;-80
2021/10/12 02:47:06;;;;;;;;;;;11.00;99.90;;;;;;5065532;28;19928;-81
2021/10/12 02:49:31;;;;;;;;;;;11.00;99.90;;;;;;5065632;28;19923;-79
2021/10/12 02:51:57;;;;;;;;;;;11.00;99.90;;;;;;5070778;28;19923;-81
2021/10/12 02:54:22;;;;;;;;;;;11.00;99.90;;;;;;5067531;28;19916;-80
2021/10/12 02:56:48;;;;;;;;;;;11.00;99.90;;;;;;5070374;28;20333;-82
2021/10/12 02:59:13;;;;;;;;;;;11.00;99.90;;;;;;5060508;28;20258;-81
2021/10/12 03:01:39;;;;;;;;;;;11.00;99.90;;;;;;5068126;28;19916;-81
2021/10/12 03:04:05;;;;;;;;;;;11.00;99.90;;;;;;5067954;28;20387;-81
2021/10/12 03:06:30;;;;;;;;;;;11.10;99.90;;;;;;5072414;28;20141;-82
2021/10/12 03:08:56;;;;;;;;;;;11.00;99.90;;;;;;5074935;28;20197;-81
2021/10/12 03:11:21;;;;;;;;;;;11.10;99.90;;;;;;5064673;28;19916;-81
2021/10/12 03:13:47;;;;;;;;;;;11.10;99.90;;;;;;5057594;28;20003;-82
2021/10/12 03:16:12;;;;;;;;;;;11.00;99.90;;;;;;5069181;28;19959;-83
2021/10/12 03:18:38;;;;;;;;;;;11.00;99.90;;;;;;5061193;28;19924;-83
2021/10/12 03:21:04;;;;;;;;;;;11.00;99.90;;;;;;5062813;28;20260;-81
2021/10/12 03:23:31;;;;;;;;;;;11.00;99.90;;;;;;5072941;28;19921;-77
2021/10/12 03:25:56;;;;;;;;;;;11.00;99.90;;;;;;5076056;28;19916;-82
2021/10/12 03:28:22;;;;;;;;;;;11.00;99.90;;;;;;5059278;28;20415;-83
2021/10/12 03:30:48;;;;;;;;;;;11.00;99.90;;;;;;5061708;28;20249;-82
2021/10/12 03:33:16;;;;;;;;;;;11.00;99.90;;;;;;5063144;28;19921;-82
2021/10/12 03:35:53;;;;;;;;;;;11.00;99.90;;;;;;5060957;28;19925;-81
2021/10/12 03:38:18;;;;;;;;;;;11.00;99.90;;;;;;5071266;28;19963;-82
2021/10/12 03:40:44;;;;;;;;;;;11.00;99.90;;;;;;5066733;28;20269;-82
2021/10/12 03:43:10;;;;;;;;;;;11.00;99.90;;;;;;5061678;28;19919;-77
2021/10/12 03:45:35;;;;;;;;;;;11.00;99.90;;;;;;5058881;28;20239;-82
2021/10/12 03:48:01;;;;;;;;;;;11.00;99.90;;;;;;5069003;28;19916;-81
2021/10/12 03:50:26;;;;;;;;;;;10.90;99.90;;;;;;5067862;28;19917;-83
2021/10/12 03:52:52;;;;;;;;;;;10.90;99.90;;;;;;5072269;28;19923;-81
2021/10/12 03:55:17;;;;;;;;;;;10.90;99.90;;;;;;5071103;28;19977;-81
2021/10/12 03:57:43;;;;;;;;;;;11.00;99.90;;;;;;5069055;28;19917;-80
2021/10/12 04:00:09;;;;;;;;;;;11.00;99.90;;;;;;5068483;28;20326;-81
2021/10/12 04:02:34;;;;;;;;;;;11.00;99.90;;;;;;5067834;28;20245;-83
2021/10/12 04:05:00;;;;;;;;;;;11.00;99.90;;;;;;5069738;28;19974;-79
2021/10/12 04:07:27;;;;;;;;;;;11.00;99.90;;;;;;5070945;28;20384;-82
2021/10/12 04:09:53;;;;;;;;;;;11.00;99.90;;;;;;5069141;28;19955;-82
2021/10/12 04:12:19;;;;;;;;;;;11.00;99.90;;;;;;5067011;28;20003;-82
2021/10/12 04:14:44;;;;;;;;;;;11.00;99.90;;;;;;5060413;28;20043;-81
2021/10/12 04:17:10;;;;;;;;;;;11.00;99.90;;;;;;5073314;28;20301;-78
2021/10/12 04:19:35;;;;;;;;;;;10.90;99.90;;;;;;5063764;28;19917;-82
2021/10/12 04:22:01;;;;;;;;;;;10.90;99.90;;;;;;5065060;28;19970;-81
2021/10/12 04:24:26;;;;;;;;;;;10.90;99.90;;;;;;5074864;28;19929;-82
2021/10/12 04:26:52;;;;;;;;;;;11.00;99.90;;;;;;5071384;28;20003;-82
2021/10/12 04:29:17;;;;;;;;;;;11.00;99.90;;;;;;5073739;28;20010;-82
2021/10/12 04:31:43;;;;;;;;;;;11.00;99.90;;;;;;5085346;28;19916;-81
2021/10/12 04:34:09;;;;;;;;;;;11.00;99.90;;;;;;5070148;28;19916;-80
2021/10/12 04:36:34;;;;;;;;;;;11.00;99.90;;;;;;5067619;28;19920;-81
2021/10/12 04:39:00;;;;;;;;;;;11.00;99.90;;;;;;5068392;28;19916;-80
2021/10/12 04:41:26;;;;;;;;;;;11.00;99.90;;;;;;5069943;28;19920;-80
2021/10/12 04:43:51;;;;;;;;;;;11.10;99.90;;;;;;5068114;28;19931;-80
2021/10/12 04:46:18;;;;;;;;;;;11.10;99.90;;;;;;5072731;28;19916;-82
2021/10/12 04:51:09;;;;;;;;;;;11.10;99.90;;;;;;5072750;28;19920;-80
2021/10/12 04:53:35;;;;;;;;;;;11.10;99.90;;;;;;5067362;28;19921;-81
2021/10/12 04:56:00;;;;;;;;;;;11.10;99.90;;;;;;5071288;28;19913;-79
2021/10/12 04:58:26;;;;;;;;;;;11.10;99.90;;;;;;5068721;28;19917;-80
2021/10/12 05:00:51;;;;;;;;;;;11.10;99.90;;;;;;5069261;28;19923;-80
2021/10/12 05:03:17;;;;;;;;;;;11.10;99.90;;;;;;5073587;28;19916;-80
2021/10/12 05:05:43;;;;;;;;;;;11.10;99.90;;;;;;5073179;28;19912;-79
2021/10/12 05:08:08;;;;;;;;;;;11.10;99.90;;;;;;5072844;28;20403;-80
2021/10/12 05:10:34;;;;;;;;;;;11.10;99.90;;;;;;5088259;28;19923;-81
2021/10/12 05:13:00;;;;;;;;;;;11.10;99.90;;;;;;5071569;28;19931;-80
2021/10/12 05:15:27;;;;;;;;;;;11.10;99.90;;;;;;5072737;28;20006;-80
2021/10/12 05:17:53;;;;;;;;;;;11.10;99.90;;;;;;5085808;28;19920;-81
2021/10/12 05:20:19;;;;;;;;;;;11.10;99.90;;;;;;5075240;28;20011;-80
2021/10/12 05:22:45;;;;;;;;;;;11.10;99.90;;;;;;5070358;28;20345;-80
2021/10/12 05:25:11;;;;;;;;;;;11.10;99.90;;;;;;5072425;28;19967;-80
2021/10/12 05:27:37;;;;;;;;;;;11.10;99.90;;;;;;5072984;28;20425;-81
2021/10/12 05:30:07;;;;;;;;;;;11.10;99.90;;;;;;5069316;28;19917;-82
2021/10/12 05:32:35;;;;;;;;;;;11.20;99.90;;;;;;5072279;28;20260;-81
2021/10/12 05:35:01;;;;;;;;;;;11.20;99.90;;;;;;5068805;28;19973;-81
2021/10/12 05:37:27;;;;;;;;;;;11.20;99.90;;;;;;5072725;28;20257;-79
2021/10/12 05:39:52;;;;;;;;;;;11.20;99.90;;;;;;5069007;28;19967;-81
2021/10/12 05:42:18;;;;;;;;;;;11.10;99.90;;;;;;5073638;28;19995;-81
2021/10/12 05:44:43;;;;;;;;;;;11.20;99.90;;;;;;5070709;28;19913;-83
2021/10/12 05:47:09;;;;;;;;;;;11.20;99.90;;;;;;5069886;28;19924;-82
2021/10/12 05:49:37;;;;;;;;;;;11.10;99.90;;;;;;5073556;28;20315;-82
2021/10/12 05:52:03;;;;;;;;;;;11.20;99.90;;;;;;5088112;28;19956;-82
2021/10/12 05:54:31;;;;;;;;;;;11.10;99.90;;;;;;5070911;28;19919;-82
2021/10/12 05:57:04;;;;;;;;;;;11.20;99.90;;;;;;5071946;28;19912;-82
2021/10/12 05:59:29;;;;;;;;;;;11.20;99.90;;;;;;5072398;28;20394;-82
2021/10/12 06:01:55;;;;;;;;;;;11.20;99.90;;;;;;5069840;28;19970;-82
2021/10/12 06:04:21;;;;;;;;;;;11.20;99.90;;;;;;5067803;28;19936;-82
2021/10/12 06:06:46;;;;;;;;;;;11.20;99.90;;;;;;5057198;28;20008;-82
2021/10/12 06:09:12;;;;;;;;;;;11.20;99.90;;;;;;5065274;28;20326;-83
2021/10/12 06:11:37;;;;;;;;;;;11.20;99.90;;;;;;5062657;28;19920;-83
2021/10/12 06:14:03;;;;;;;;;;;11.20;99.90;;;;;;5068416;28;19912;-82
2021/10/12 06:16:29;;;;;;;;;;;11.20;99.90;;;;;;5061524;28;19913;-83
2021/10/12 06:18:54;;;;;;;;;;;11.20;99.90;;;;;;5070994;28;19917;-82
2021/10/12 06:21:20;;;;;;;;;;;11.20;99.90;;;;;;5070094;28;19921;-83
2021/10/12 06:23:45;;;;;;;;;;;11.20;99.90;;;;;;5067104;28;19920;-81
2021/10/12 06:26:11;;;;;;;;;;;11.20;99.90;;;;;;5070043;28;19944;-81
2021/10/12 06:28:37;;;;;;;;;;;11.20;99.90;;;;;;5057189;28;19917;-82
2021/10/12 06:31:02;;;;;;;;;;;11.20;99.90;;;;;;5057046;28;19923;-82
2021/10/12 06:33:28;;;;;;;;;;;11.20;99.90;;;;;;5054290;28;19913;-79
2021/10/12 06:35:53;;;;;;;;;;;11.30;99.90;;;;;;5057235;28;19917;-82
2021/10/12 06:38:19;;;;;;;;;;;11.40;99.90;;;;;;5061639;28;20016;-82
2021/10/12 06:40:45;;;;;;;;;;;11.30;99.90;;;;;;5060551;28;19920;-81
2021/10/12 06:43:10;;;;;;;;;;;11.40;99.90;;;;;;5057130;28;20394;-80
2021/10/12 06:45:37;;;;;;;;;;;11.40;99.90;;;;;;5082369;28;19917;-81
2021/10/12 06:48:03;;;;;;;;;;;11.40;99.90;;;;;;5067811;28;20007;-81
2021/10/12 06:50:29;;;;;;;;;;;11.50;99.90;;;;;;5069293;28;20278;-82
2021/10/12 06:52:55;;;;;;;;;;;11.60;99.90;;;;;;5071668;28;19916;-82
2021/10/12 06:55:21;;;;;;;;;;;11.50;99.90;;;;;;5056315;28;19939;-79
2021/10/12 06:57:47;;;;;;;;;;;11.50;99.90;;;;;;5075839;28;20205;-82
2021/10/12 07:00:13;;;;;;;;;;;11.40;99.90;;;;;;5068022;28;19918;-82
2021/10/12 07:02:40;;;;;;;;;;;11.40;99.90;;;;;;5061966;28;19944;-82
2021/10/12 07:05:06;;;;;;;;;;;11.40;99.90;;;;;;5064046;28;19919;-82
2021/10/12 07:07:32;;;;;;;;;;;11.40;99.90;;;;;;5072446;28;19917;-81
2021/10/12 07:10:00;;;;;;;;;;;11.40;99.90;;;;;;5063244;28;19957;-83
2021/10/12 07:12:26;;;;;;;;;;;11.50;99.90;;;;;;5069622;28;20312;-83
2021/10/12 07:14:52;;;;;;;;;;;11.50;99.90;;;;;;5073945;28;20007;-83
2021/10/12 07:17:17;;;;;;;;;;;11.50;99.90;;;;;;5071783;28;20258;-81
2021/10/12 07:19:43;;;;;;;;;;;11.60;99.90;;;;;;5069449;28;19913;-83
2021/10/12 07:22:08;;;;;;;;;;;11.80;99.90;;;;;;5070428;28;20346;-82
2021/10/12 07:24:34;;;;;;;;;;;12.00;99.90;;;;;;5070728;28;19912;-83
2021/10/12 07:26:59;;;;;;;;;;;12.00;99.90;;;;;;5067047;28;19921;-82
2021/10/12 07:29:25;;;;;;;;;;;11.90;99.90;;;;;;5063135;28;19916;-82
2021/10/12 07:31:51;;;;;;;;;;;11.90;99.90;;;;;;5072256;28;19917;-82
2021/10/12 07:34:16;;;;;;;;;;;11.90;99.90;;;;;;5073405;28;19913;-81
2021/10/12 07:36:42;;;;;;;;;;;11.90;99.90;;;;;;5070505;28;20332;-80
2021/10/12 07:39:07;;;;;;;;;;;11.80;99.90;;;;;;5057116;28;20350;-81
2021/10/12 07:41:33;;;;;;;;;;;11.80;99.90;;;;;;5056941;28;19912;-81
2021/10/12 07:43:59;;;;;;;;;;;11.80;99.90;;;;;;5068327;28;19940;-81
2021/10/12 07:46:25;;;;;;;;;;;11.90;99.90;;;;;;5073533;28;19919;-81
2021/10/12 07:48:53;;;;;;;;;;;11.90;99.90;;;;;;5074237;28;19912;-80
2021/10/12 07:51:18;;;;;;;;;;;11.90;99.90;;;;;;5073937;28;19920;-80
2021/10/12 07:53:44;;;;;;;;;;;11.90;99.90;;;;;;5076219;28;19920;-80
2021/10/12 07:56:17;;;;;;;;;;;11.90;99.90;;;;;;5072667;28;19944;-81
2021/10/12 07:58:44;;;;;;;;;;;11.90;99.90;;;;;;5063526;28;20311;-82
2021/10/12 08:01:09;;;;;;;;;;;12.00;99.90;;;;;;5067019;28;20284;-81
2021/10/12 08:03:35;;;;;;;;;;;12.00;99.90;;;;;;5063814;28;19963;-80
2021/10/12 08:06:01;;;;;;;;;;;12.00;99.90;;;;;;5063383;28;20303;-81
2021/10/12 08:08:26;;;;;;;;;;;12.00;99.90;;;;;;5063703;28;19919;-82
2021/10/12 08:10:53;;;;;;;;;;;12.00;99.90;;;;;;5061581;28;19970;-80
2021/10/12 08:13:21;;;;;;;;;;;12.00;99.90;;;;;;5074176;28;19922;-80
2021/10/12 08:15:51;;;;;;;;;;;12.10;99.90;;;;;;5059496;28;19913;-81
2021/10/12 08:18:18;;;;;;;;;;;12.10;99.90;;;;;;5074938;28;20273;-80
2021/10/12 08:20:44;;;;;;;;;;;12.20;99.90;;;;;;5069215;28;19940;-79
2021/10/12 08:23:09;;;;;;;;;;;12.20;99.90;;;;;;5075990;28;20461;-82
2021/10/12 08:25:35;;;;;;;;;;;12.20;99.90;;;;;;5070157;28;19913;-82
2021/10/12 08:28:01;;;;;;;;;;;12.20;99.90;;;;;;5074898;28;19913;-85
2021/10/12 08:30:26;;;;;;;;;;;12.20;99.90;;;;;;5074361;28;20614;-82
2021/10/12 08:32:52;;;;;;;;;;;12.10;99.90;;;;;;5069775;28;19916;-81
2021/10/12 08:35:17;;;;;;;;;;;12.00;99.90;;;;;;5069983;28;20379;-80
2021/10/12 08:37:43;;;;;;;;;;;11.80;99.90;;;;;;5089403;28;19959;-83
2021/10/12 08:40:13;;;;;;;;;;;11.70;99.90;;;;;;5069688;28;19921;-82
2021/10/12 08:42:43;;;;;;;;;;;11.70;99.90;;;;;;5067642;28;19941;-80
2021/10/12 08:45:09;;;;;;;;;;;11.70;99.90;;;;;;5065171;28;20326;-80
2021/10/12 08:47:35;;;;;;;;;;;11.70;99.90;;;;;;5064080;28;19912;-81
2021/10/12 08:50:02;;;;;;;;;;;11.70;99.90;;;;;;5059640;28;19916;-80
2021/10/12 08:52:28;;;;;;;;;;;11.70;99.90;;;;;;5067134;28;19913;-80
2021/10/12 08:54:54;;;;;;;;;;;11.70;99.90;;;;;;5061752;28;19913;-81
2021/10/12 08:57:33;;;;;;;;;;;11.80;99.90;;;;;;5065488;28;19947;-79
2021/10/12 09:00:10;;;;;;;;;;;11.80;99.90;;;;;;5073604;28;20011;-80
2021/10/12 09:02:53;;;;;;;;;;;11.80;99.90;;;;;;5072707;28;19920;-81
2021/10/12 09:05:26;;;;;;;;;;;11.80;99.90;;;;;;5072501;28;19916;-80
2021/10/12 09:07:52;;;;;;;;;;;11.90;99.90;;;;;;5071768;28;19912;-80
2021/10/12 09:10:19;;;;;;;;;;;11.90;99.90;;;;;;5069965;28;20319;-80
2021/10/12 09:12:46;;;;;;;;;;;11.90;99.90;;;;;;5072061;28;19924;-80
2021/10/12 09:15:12;;;;;;;;;;;11.90;99.90;;;;;;5071959;28;19995;-81
2021/10/12 09:17:39;;;;;;;;;;;11.90;99.90;;;;;;5071546;28;19924;-79
2021/10/12 09:20:11;;;;;;;;;;;11.90;99.90;;;;;;5068457;28;20600;-82
2021/10/12 09:22:37;;;;;;;;;;;11.90;99.90;;;;;;5086690;28;20303;-80
2021/10/12 09:25:09;;;;;;;;;;;12.00;99.90;;;;;;5070894;28;19920;-81
2021/10/12 09:27:56;;;;;;;;;;;12.10;99.90;;;;;;5070466;28;19917;-82
2021/10/12 09:30:25;;;;;;;;;;;12.30;99.90;;;;;;5074228;28;20220;-81
2021/10/12 09:33:11;;;;;;;;;;;12.40;99.90;;;;;;5078713;28;19920;-82
2021/10/12 09:35:37;;;;;;;;;;;12.50;99.90;;;;;;5070622;28;19924;-82
2021/10/12 09:38:03;;;;;;;;;;;12.80;99.90;;;;;;5071801;28;19924;-83
2021/10/12 09:40:33;;;;;;;;;;;13.10;99.90;;;;;;5087841;28;21236;-83
2021/10/12 09:42:59;;;;;;;;;;;13.10;99.90;;;;;;5075611;28;19927;-83
2021/10/12 09:45:41;;;;;;;;;;;13.20;99.90;;;;;;5071706;28;19920;-83
2021/10/12 09:48:26;;;;;;;;;;;13.20;99.90;;;;;;5071478;28;19919;-83
2021/10/12 09:51:18;;;;;;;;;;;13.30;99.90;;;;;;5068156;28;20358;-81
2021/10/12 09:53:45;;;;;;;;;;;13.50;99.90;;;;;;5070311;28;20262;-82
2021/10/12 09:56:12;;;;;;;;;;;13.40;99.90;;;;;;5081891;28;20005;-81
2021/10/12 09:58:38;;;;;;;;;;;13.40;99.90;;;;;;5071296;28;19921;-83
2021/10/12 10:01:05;;;;;;;;;;;13.30;99.90;;;;;;5068756;28;20002;-83
2021/10/12 10:03:31;;;;;;;;;;;13.20;99.90;;;;;;5072077;28;19919;-86
2021/10/12 10:06:04;;;;;;;;;;;13.20;99.90;;;;;;5072478;28;19916;-85
2021/10/12 10:08:30;;;;;;;;;;;13.10;99.90;;;;;;5088216;28;19920;-84
2021/10/12 10:10:56;;;;;;;;;;;13.00;99.90;;;;;;5072629;28;19927;-85
2021/10/12 10:13:23;;;;;;;;;;;13.00;99.90;;;;;;5072302;28;20295;-90
2021/10/12 10:15:49;;;;;;;;;;;12.90;99.90;;;;;;5069866;28;19913;-87
2021/10/12 10:18:18;;;;;;;;;;;12.80;99.90;;;;;;5076982;28;19932;-85
2021/10/12 10:20:49;;;;;;;;;;;12.60;99.90;;;;;;5078459;28;19921;-84
2021/10/12 10:23:35;;;;;;;;;;;12.50;99.90;;;;;;5078258;28;19917;-85
2021/10/12 10:26:19;;;;;;;;;;;12.60;99.90;;;;;;5073950;28;19917;-88
2021/10/12 10:28:45;;;;;;;;;;;12.60;99.90;;;;;;5066737;28;19938;-84
2021/10/12 10:31:10;;;;;;;;;;;12.60;99.90;;;;;;5064183;28;19916;-85
2021/10/12 10:33:37;;;;;;;;;;;12.60;99.90;;;;;;5062288;28;20451;-87
2021/10/12 10:36:08;;;;;;;;;;;12.70;99.90;;;;;;5060453;28;20011;-87
2021/10/12 10:38:33;;;;;;;;;;;12.80;99.90;;;;;;5070121;28;19916;-82
2021/10/12 10:41:05;;;;;;;;;;;12.90;99.90;;;;;;5072638;28;20325;-84
2021/10/12 10:43:49;;;;;;;;;;;12.90;99.90;;;;;;5071448;28;19962;-82
2021/10/12 10:46:34;;;;;;;;;;;13.00;99.90;;;;;;5076752;28;20326;-87
2021/10/12 10:49:09;;;;;;;;;;;13.10;99.90;;;;;;5087274;28;20203;-86
2021/10/12 10:51:47;;;;;;;;;;;13.10;99.90;;;;;;5063818;28;20294;-85
2021/10/12 10:54:43;;;;;;;;;;;13.10;99.90;;;;;;5086496;28;19916;-84
2021/10/12 10:57:09;;;;;;;;;;;13.10;99.90;;;;;;5066754;28;19913;-84
2021/10/12 10:59:35;;;;;;;;;;;13.30;99.90;;;;;;5076603;28;19913;-86
2021/10/12 11:02:01;;;;;;;;;;;13.40;99.90;;;;;;5072449;28;19935;-84
2021/10/12 11:04:43;;;;;;;;;;;13.50;99.90;;;;;;5074597;28;19909;-82
2021/10/12 11:07:08;;;;;;;;;;;13.40;99.90;;;;;;5075504;28;19916;-82
2021/10/12 11:09:43;;;;;;;;;;;13.40;99.90;;;;;;5070663;28;19912;-82
2021/10/12 11:12:22;;;;;;;;;;;13.40;99.90;;;;;;5074933;28;19924;-84
2021/10/12 11:14:48;;;;;;;;;;;13.50;99.90;;;;;;5072984;28;19916;-82
2021/10/12 11:17:14;;;;;;;;;;;13.40;99.90;;;;;;5074398;28;19920;-86
2021/10/12 11:19:53;;;;;;;;;;;13.30;99.90;;;;;;5072288;28;20161;-83
2021/10/12 11:22:19;;;;;;;;;;;13.30;99.90;;;;;;5088599;28;19912;-83
2021/10/12 11:24:45;;;;;;;;;;;13.40;99.90;;;;;;5070273;28;19948;-85
2021/10/12 11:27:11;;;;;;;;;;;13.40;99.90;;;;;;5072908;28;20327;-82
2021/10/12 11:29:36;;;;;;;;;;;13.50;99.90;;;;;;5066712;28;21182;-82
2021/10/12 11:32:03;;;;;;;;;;;13.70;99.90;;;;;;5059847;28;20276;-81
2021/10/12 11:34:28;;;;;;;;;;;13.70;99.90;;;;;;5061485;28;19924;-82
2021/10/12 11:37:05;;;;;;;;;;;13.70;99.90;;;;;;5072104;28;20208;-82
2021/10/12 11:39:31;;;;;;;;;;;13.70;99.90;;;;;;5082614;28;20228;-81
2021/10/12 11:42:00;;;;;;;;;;;13.70;99.90;;;;;;5070433;28;19966;-82
2021/10/12 11:44:25;;;;;;;;;;;13.60;99.90;;;;;;5069556;28;19924;-82
2021/10/12 11:46:55;;;;;;;;;;;13.60;99.90;;;;;;5072977;28;20211;-80
2021/10/12 11:49:21;;;;;;;;;;;13.60;99.90;;;;;;5074588;28;19920;-80
2021/10/12 11:51:47;;;;;;;;;;;13.70;99.90;;;;;;5072993;28;19913;-84
2021/10/12 11:54:13;;;;;;;;;;;13.80;99.90;;;;;;5071279;28;20003;-84
2021/10/12 11:56:41;;;;;;;;;;;13.80;99.90;;;;;;5071828;28;19999;-83
2021/10/12 11:59:11;;;;;;;;;;;13.70;99.90;;;;;;5070581;28;19921;-81
2021/10/12 12:01:39;;;;;;;;;;;13.60;99.90;;;;;;5076115;28;20018;-82
2021/10/12 12:04:05;;;;;;;;;;;13.50;99.90;;;;;;5088273;28;19927;-83
2021/10/12 12:06:33;;;;;;;;;;;13.50;99.90;;;;;;5060764;28;19917;-80
2021/10/12 12:09:01;;;;;;;;;;;13.40;99.90;;;;;;5071793;28;19977;-83
2021/10/12 12:11:31;;;;;;;;;;;13.40;99.90;;;;;;5069451;28;19931;-83
2021/10/12 12:13:57;;;;;;;;;;;13.40;99.90;;;;;;5072880;28;19912;-81
2021/10/12 12:16:24;;;;;;;;;;;13.40;99.90;;;;;;5073895;28;19951;-79
2021/10/12 12:18:50;;;;;;;;;;;13.30;99.90;;;;;;5070711;28;19967;-80
2021/10/12 12:21:26;;;;;;;;;;;13.30;99.90;;;;;;5072454;28;19966;-80
2021/10/12 12:23:54;;;;;;;;;;;13.20;99.90;;;;;;5081337;28;19912;-80
2021/10/12 12:26:21;;;;;;;;;;;13.20;99.90;;;;;;5069867;28;19951;-79
2021/10/12 12:28:47;;;;;;;;;;;13.20;99.90;;;;;;5076381;28;19999;-83
2021/10/12 12:31:18;;;;;;;;;;;13.20;99.90;;;;;;5064939;28;20000;-83
2021/10/12 12:33:43;;;;;;;;;;;13.40;99.90;;;;;;5058887;28;20323;-83
2021/10/12 12:36:09;;;;;;;;;;;13.60;99.90;;;;;;5057233;28;19921;-84
2021/10/12 12:38:34;;;;;;;;;;;13.80;99.90;;;;;;5071001;28;19928;-81
2021/10/12 12:41:00;;;;;;;;;;;13.80;99.90;;;;;;5063959;28;19928;-78
2021/10/12 12:43:28;;;;;;;;;;;13.70;99.90;;;;;;5068115;28;20307;-80
2021/10/12 12:46:10;;;;;;;;;;;13.70;99.90;;;;;;5056181;28;19913;-82
2021/10/12 12:48:36;;;;;;;;;;;13.60;99.90;;;;;;5061877;28;19917;-81
2021/10/12 12:51:04;;;;;;;;;;;13.50;99.90;;;;;;5067896;28;19957;-85
2021/10/12 12:53:42;;;;;;;;;;;13.50;99.90;;;;;;5062166;28;20019;-79
2021/10/12 12:56:09;;;;;;;;;;;13.40;99.90;;;;;;5081764;28;19963;-81
2021/10/12 12:58:39;;;;;;;;;;;13.30;99.90;;;;;;5063924;28;19985;-78
2021/10/12 13:01:06;;;;;;;;;;;13.20;99.90;;;;;;5069911;28;19928;-79
2021/10/12 13:03:32;;;;;;;;;;;13.20;99.90;;;;;;5064690;28;19921;-86
2021/10/12 13:05:58;;;;;;;;;;;13.40;99.90;;;;;;5065790;28;19927;-82
2021/10/12 13:08:23;;;;;;;;;;;13.30;99.90;;;;;;5065161;28;19916;-80
2021/10/12 13:10:49;;;;;;;;;;;13.20;99.90;;;;;;5081270;28;19920;-78
2021/10/12 13:13:14;;;;;;;;;;;13.30;99.90;;;;;;5066022;28;19928;-80
2021/10/12 13:15:40;;;;;;;;;;;13.40;99.90;;;;;;5062894;28;20492;-77
2021/10/12 13:18:06;;;;;;;;;;;13.50;99.90;;;;;;5062857;28;19970;-82
2021/10/12 13:20:31;;;;;;;;;;;13.50;99.90;;;;;;5061075;28;20311;-83
2021/10/12 13:22:57;;;;;;;;;;;13.40;99.90;;;;;;5064001;28;19923;-85
2021/10/12 13:25:22;;;;;;;;;;;13.30;99.90;;;;;;5062034;28;19920;-80
2021/10/12 13:27:48;;;;;;;;;;;13.20;99.90;;;;;;5061033;28;19913;-80
2021/10/12 13:30:14;;;;;;;;;;;13.10;99.90;;;;;;5067178;28;19920;-78
2021/10/12 13:32:40;;;;;;;;;;;13.10;99.90;;;;;;5060674;28;20333;-82
2021/10/12 13:35:06;;;;;;;;;;;13.20;99.90;;;;;;5077156;28;19921;-79
2021/10/12 13:37:32;;;;;;;;;;;13.30;99.90;;;;;;5063375;28;19964;-78
2021/10/12 13:39:57;;;;;;;;;;;13.40;99.90;;;;;;5059041;28;19959;-78
2021/10/12 13:42:23;;;;;;;;;;;13.40;99.90;;;;;;5056839;28;20348;-79
2021/10/12 13:44:51;;;;;;;;;;;13.40;99.90;;;;;;5058793;28;20665;-78
2021/10/12 13:47:19;;;;;;;;;;;13.50;99.90;;;;;;5056588;28;20031;-80
2021/10/12 13:49:46;;;;;;;;;;;13.50;99.90;;;;;;5057064;28;19970;-80
2021/10/12 13:52:12;;;;;;;;;;;13.60;99.90;;;;;;5060419;28;19916;-81
2021/10/12 13:54:38;;;;;;;;;;;13.60;99.90;;;;;;5058046;28;19926;-79
2021/10/12 13:57:03;;;;;;;;;;;13.70;99.90;;;;;;5058418;28;19974;-79
2021/10/12 13:59:29;;;;;;;;;;;13.80;99.90;;;;;;5064744;28;19920;-82
2021/10/12 14:01:54;;;;;;;;;;;13.80;99.90;;;;;;5060525;28;19921;-80
2021/10/12 14:04:20;;;;;;;;;;;13.50;99.90;;;;;;5063558;28;20014;-76
2021/10/12 14:06:46;;;;;;;;;;;13.40;99.90;;;;;;5064549;28;19921;-80
2021/10/12 14:09:12;;;;;;;;;;;13.30;99.90;;;;;;5067760;28;20262;-82
2021/10/12 14:11:37;;;;;;;;;;;13.30;99.90;;;;;;5065586;28;19921;-79
2021/10/12 14:14:06;;;;;;;;;;;13.30;99.90;;;;;;5067297;28;19917;-80
2021/10/12 14:16:32;;;;;;;;;;;13.40;99.90;;;;;;5066569;28;19916;-79
2021/10/12 14:18:58;;;;;;;;;;;13.30;99.90;;;;;;5067608;28;19925;-80